Time;durP1;ratioP1;P1;durP2;ratioP2;P2;SDS_P1;SDS_P2;PMS_P1;PMS_P2;Temp;Humidity;BMP_temperature;BMP_pressure;BME280_temperature;BME280_humidity;BME280_pressure;Samples;Min_cycle;Max_cycle;Signal;HPM_P1;HPM_P2
2024/04/25 00:00:55;;;;;;;9.65;5.75;;;;;;;5.75;61.48;94300.22;5450485;26;19999;-45
2024/04/25 00:03:21;;;;;;;7.22;5.97;;;;;;;5.61;61.26;94300.91;5445530;26;20015;-46
2024/04/25 00:05:46;;;;;;;8.82;5.85;;;;;;;5.93;61.39;94304.28;5441853;26;20334;-46
2024/04/25 00:08:11;;;;;;;7.88;5.45;;;;;;;5.95;60.98;94289.44;5442227;26;20015;-45
2024/04/25 00:10:39;;;;;;;8.80;5.53;;;;;;;6.08;60.83;94287.13;5437917;26;20015;-47
2024/04/25 00:13:05;;;;;;;8.07;5.68;;;;;;;6.14;60.59;94296.75;5450390;26;19998;-46
2024/04/25 00:15:30;;;;;;;8.40;5.75;;;;;;;6.18;60.48;94286.88;5449665;26;20089;-45
2024/04/25 00:17:55;;;;;;;7.60;5.50;;;;;;;6.12;60.34;94285.78;5449559;26;20082;-45
2024/04/25 00:20:21;;;;;;;6.43;5.03;;;;;;;6.17;60.39;94280.09;5449920;26;20002;-49
2024/04/25 00:22:47;;;;;;;8.40;5.57;;;;;;;6.23;60.37;94282.00;5433906;26;19999;-47
2024/04/25 00:25:12;;;;;;;7.10;5.15;;;;;;;6.33;60.60;94276.59;5448231;26;20003;-47
2024/04/25 00:27:38;;;;;;;7.03;5.30;;;;;;;6.25;60.67;94280.84;5496790;25;19995;-45
2024/04/25 00:30:04;;;;;;;9.20;5.65;;;;;;;6.28;61.07;94277.09;5448025;26;20017;-45
2024/04/25 00:32:29;;;;;;;6.90;5.03;;;;;;;6.36;60.74;94282.22;5447010;26;20002;-45
2024/04/25 00:34:57;;;;;;;7.50;5.30;;;;;;;6.39;60.19;94273.31;5437245;26;20003;-45
2024/04/25 00:37:23;;;;;;;7.55;5.40;;;;;;;6.37;60.26;94272.69;5438659;26;20014;-46
2024/04/25 00:39:50;;;;;;;7.60;5.18;;;;;;;6.39;59.75;94275.91;5444125;26;20006;-48
2024/04/25 00:42:20;;;;;;;6.20;5.07;;;;;;;6.36;60.66;94268.47;5444911;26;20014;-46
2024/04/25 00:44:45;;;;;;;7.80;5.38;;;;;;;6.21;61.26;94269.25;5448434;26;20003;-46
2024/04/25 00:47:15;;;;;;;6.60;5.03;;;;;;;6.25;60.82;94265.34;5414035;26;20071;-47
2024/04/25 00:49:41;;;;;;;7.30;4.95;;;;;;;6.29;60.32;94267.59;5436153;26;20483;-46
2024/04/25 00:52:08;;;;;;;8.32;5.28;;;;;;;6.23;61.30;94266.50;5436803;26;20027;-45
2024/04/25 00:54:34;;;;;;;8.13;4.90;;;;;;;6.40;59.65;94269.75;5445638;26;20002;-45
2024/04/25 00:57:02;;;;;;;7.43;4.85;;;;;;;6.43;60.25;94264.22;5446634;26;20029;-46
2024/04/25 00:59:30;;;;;;;4.78;3.95;;;;;;;6.35;59.41;94261.72;5446133;26;20002;-49
2024/04/25 01:02:00;;;;;;;6.28;4.68;;;;;;;6.34;58.81;94258.34;5447406;26;20017;-45
2024/04/25 01:04:27;;;;;;;6.65;4.65;;;;;;;6.22;59.83;94270.84;5449567;26;20010;-45
2024/04/25 01:06:55;;;;;;;6.50;4.68;;;;;;;6.36;59.46;94263.31;5449034;26;20003;-47
2024/04/25 01:09:21;;;;;;;6.38;4.13;;;;;;;6.37;59.61;94257.19;5435829;26;20517;-45
2024/04/25 01:11:46;;;;;;;5.43;4.53;;;;;;;6.18;59.71;94256.69;5421675;26;20002;-47
2024/04/25 01:14:12;;;;;;;7.28;4.30;;;;;;;5.68;60.90;94265.75;5442819;26;19998;-45
2024/04/25 01:16:37;;;;;;;6.90;4.63;;;;;;;5.83;61.56;94258.88;5441444;26;20003;-45
2024/04/25 01:19:02;;;;;;;5.70;4.20;;;;;;;5.98;60.62;94248.63;5444942;26;20080;-45
2024/04/25 01:21:28;;;;;;;5.80;4.18;;;;;;;6.12;60.07;94241.91;5443206;26;20005;-47
2024/04/25 01:23:58;;;;;;;5.53;3.92;;;;;;;6.20;60.15;94252.16;5443060;26;20002;-49
2024/04/25 01:26:23;;;;;;;5.87;4.10;;;;;;;6.02;60.46;94246.50;5438597;26;20022;-45
2024/04/25 01:28:51;;;;;;;5.55;3.92;;;;;;;6.07;60.82;94241.63;5429683;26;20004;-45
2024/04/25 01:31:16;;;;;;;5.78;4.20;;;;;;;6.07;60.66;94234.69;5427580;26;20084;-45
2024/04/25 01:33:43;;;;;;;7.22;4.50;;;;;;;5.97;60.92;94246.22;5449113;26;20491;-45
2024/04/25 01:36:09;;;;;;;6.93;4.50;;;;;;;6.04;60.64;94242.78;5446668;26;20034;-46
2024/04/25 01:38:34;;;;;;;6.22;4.53;;;;;;;6.26;59.92;94241.16;5446930;26;19999;-47
2024/04/25 01:40:59;;;;;;;5.70;4.28;;;;;;;6.18;60.63;94246.38;5442661;26;20011;-45
2024/04/25 01:43:25;;;;;;;8.20;5.03;;;;;;;6.01;61.55;94235.38;5440609;26;20336;-45
2024/04/25 01:45:50;;;;;;;8.15;4.50;;;;;;;6.04;61.60;94236.81;5467758;26;20014;-46
2024/04/25 01:48:15;;;;;;;6.07;3.92;;;;;;;6.26;60.35;94232.56;5437468;26;20050;-46
2024/04/25 01:50:41;;;;;;;7.35;4.78;;;;;;;6.40;59.48;94229.22;5448426;26;20014;-45
2024/04/25 01:53:06;;;;;;;8.20;4.60;;;;;;;6.21;59.54;94227.16;5430805;26;20054;-45
2024/04/25 01:55:31;;;;;;;7.20;4.53;;;;;;;6.42;59.56;94226.47;5436111;26;20044;-45
2024/04/25 01:57:57;;;;;;;6.88;4.65;;;;;;;6.41;59.58;94227.44;5446056;26;20011;-46
2024/04/25 02:00:22;;;;;;;7.60;4.65;;;;;;;6.46;59.42;94230.31;5446865;26;19999;-45
2024/04/25 02:02:48;;;;;;;6.82;4.57;;;;;;;6.45;59.25;94223.53;5415827;26;19999;-45
2024/04/25 02:05:13;;;;;;;5.68;4.25;;;;;;;6.58;59.43;94228.88;5448472;26;20003;-46
2024/04/25 02:07:38;;;;;;;6.65;4.38;;;;;;;6.56;59.92;94220.50;5446343;26;20003;-47
2024/04/25 02:10:04;;;;;;;5.38;4.03;;;;;;;6.59;59.93;94219.38;5441358;26;20051;-48
2024/04/25 02:12:30;;;;;;;6.95;4.43;;;;;;;6.56;59.44;94211.97;5443185;26;20015;-45
2024/04/25 02:14:55;;;;;;;8.20;5.00;;;;;;;6.53;60.14;94212.31;5405911;26;20000;-45
2024/04/25 02:17:21;;;;;;;7.43;4.82;;;;;;;6.50;60.77;94205.72;5403983;26;20011;-49
2024/04/25 02:19:46;;;;;;;6.63;4.47;;;;;;;6.67;59.60;94208.94;5410510;26;20003;-50
2024/04/25 02:27:31;;;;;;;5.85;4.25;;;;;;;6.74;59.05;94207.25;5443388;26;20018;-48
2024/04/25 02:29:57;;;;;;;6.47;4.47;;;;;;;6.79;58.49;94207.50;5439978;26;20000;-46
2024/04/25 02:32:22;;;;;;;6.82;4.30;;;;;;;6.62;58.88;94209.47;5441387;26;19999;-48
2024/04/25 02:34:48;;;;;;;6.63;4.60;;;;;;;6.43;59.86;94202.25;5450598;26;20436;-50
2024/04/25 02:37:13;;;;;;;6.80;4.78;;;;;;;6.50;58.86;94203.16;5431074;26;20011;-45
2024/04/25 02:39:39;;;;;;;6.60;4.35;;;;;;;6.60;58.64;94197.72;5443056;26;20003;-48
2024/04/25 02:42:05;;;;;;;6.65;4.45;;;;;;;6.45;59.08;94195.94;5450819;26;20014;-45
2024/04/25 02:44:30;;;;;;;7.13;4.65;;;;;;;6.36;60.07;94196.16;5449794;26;20018;-52
2024/04/25 02:46:55;;;;;;;8.68;4.65;;;;;;;6.52;59.09;94201.19;5447728;26;20339;-50
2024/04/25 02:49:21;;;;;;;6.32;4.35;;;;;;;6.46;59.41;94194.94;5407634;26;19998;-50
2024/04/25 02:51:46;;;;;;;7.82;4.90;;;;;;;6.49;58.88;94198.94;5443076;26;20011;-49
2024/04/25 02:54:12;;;;;;;7.57;4.68;;;;;;;6.55;59.44;94200.84;5446742;26;20327;-50
2024/04/25 02:56:37;;;;;;;7.13;4.65;;;;;;;6.12;61.22;94194.63;5444706;26;20079;-48
2024/04/25 02:59:03;;;;;;;6.38;4.50;;;;;;;6.31;60.77;94203.66;5445545;26;20006;-46
2024/04/25 03:01:28;;;;;;;6.90;4.90;;;;;;;6.50;59.32;94197.97;5451057;26;19999;-46
2024/04/25 03:03:54;;;;;;;6.80;4.50;;;;;;;6.49;58.94;94203.31;5438130;26;20035;-46
2024/04/25 03:06:21;;;;;;;8.00;5.00;;;;;;;6.23;60.36;94195.00;5449361;26;20002;-45
2024/04/25 03:08:46;;;;;;;7.20;4.38;;;;;;;6.22;60.70;94197.75;5449092;26;20002;-48
2024/04/25 03:11:12;;;;;;;6.32;4.22;;;;;;;6.28;60.39;94196.25;5418741;26;20039;-48
2024/04/25 03:13:38;;;;;;;6.82;4.90;;;;;;;6.33;60.04;94192.16;5448978;26;20519;-47
2024/04/25 03:16:04;;;;;;;8.13;4.88;;;;;;;6.43;59.83;94192.69;5446394;26;19999;-51
2024/04/25 03:18:30;;;;;;;7.05;4.65;;;;;;;6.46;60.25;94188.97;5442391;26;20010;-50
2024/04/25 03:21:06;;;;;;;6.88;4.18;;;;;;;6.56;59.14;94202.44;5418893;26;20038;-49
2024/04/25 03:23:36;;;;;;;9.65;5.10;;;;;;;6.43;60.28;94187.53;5450265;26;20003;-45
2024/04/25 03:26:05;;;;;;;8.07;4.93;;;;;;;6.49;60.38;94195.56;5442943;26;20452;-46
2024/04/25 03:28:32;;;;;;;9.27;4.88;;;;;;;6.56;59.41;94186.94;5445334;26;20014;-50
2024/04/25 03:30:57;;;;;;;8.65;4.90;;;;;;;6.63;59.37;94189.63;5438315;26;20023;-46
2024/04/25 03:33:24;;;;;;;7.10;4.47;;;;;;;6.52;59.13;94195.22;5413128;26;20007;-50
2024/04/25 03:35:50;;;;;;;6.18;4.50;;;;;;;6.45;58.27;94189.94;5444248;26;20446;-46
2024/04/25 03:38:15;;;;;;;6.47;4.35;;;;;;;6.42;58.95;94195.47;5441568;26;20003;-49
2024/04/25 03:40:41;;;;;;;6.63;4.85;;;;;;;6.51;58.53;94184.09;5450915;26;20002;-46
2024/04/25 03:43:06;;;;;;;8.35;5.18;;;;;;;6.39;59.76;94183.72;5441707;26;20000;-52
2024/04/25 03:45:32;;;;;;;6.53;4.75;;;;;;;6.47;59.74;94193.16;5440718;26;20009;-48
2024/04/25 03:47:58;;;;;;;7.07;4.80;;;;;;;6.45;59.95;94195.13;5404447;26;20018;-50
2024/04/25 03:50:23;;;;;;;7.43;4.93;;;;;;;6.52;58.69;94183.09;5445990;26;19999;-49
2024/04/25 03:52:49;;;;;;;6.97;4.55;;;;;;;6.72;57.34;94190.31;5444569;26;20002;-49
2024/04/25 03:55:15;;;;;;;6.53;4.28;;;;;;;6.60;57.93;94185.59;5448596;26;20010;-49
2024/04/25 03:57:40;;;;;;;8.38;4.82;;;;;;;6.52;59.25;94188.25;5443722;26;20018;-48
2024/04/25 04:00:06;;;;;;;6.82;4.72;;;;;;;6.67;59.11;94190.84;5450404;26;19995;-49
2024/04/25 04:02:31;;;;;;;9.25;5.43;;;;;;;6.49;59.95;94191.19;5449915;26;20002;-50
2024/04/25 04:04:57;;;;;;;8.57;4.80;;;;;;;6.50;59.99;94190.22;5448483;26;20065;-47
2024/04/25 04:07:22;;;;;;;6.93;4.80;;;;;;;6.43;59.91;94195.28;5433340;26;19999;-45
2024/04/25 04:09:48;;;;;;;7.43;4.95;;;;;;;6.55;59.23;94192.25;5448149;26;20011;-51
2024/04/25 04:12:14;;;;;;;7.38;5.05;;;;;;;6.22;60.03;94180.47;5444970;26;20073;-48
2024/04/25 04:14:40;;;;;;;6.15;4.78;;;;;;;6.57;58.92;94183.38;5449553;26;20397;-51
2024/04/25 04:17:06;;;;;;;6.55;5.05;;;;;;;6.59;58.37;94188.38;5450335;26;20003;-46
2024/04/25 04:19:31;;;;;;;7.88;5.10;;;;;;;6.50;59.40;94195.41;5448033;26;19999;-47
2024/04/25 04:21:57;;;;;;;7.30;4.80;;;;;;;6.45;58.88;94195.13;5448076;26;20007;-46
2024/04/25 04:24:22;;;;;;;6.38;4.78;;;;;;;6.32;58.72;94187.19;5447770;26;20010;-47
2024/04/25 04:26:47;;;;;;;5.97;4.45;;;;;;;6.34;58.74;94187.78;5440447;26;20010;-45
2024/04/25 04:29:13;;;;;;;7.30;4.97;;;;;;;6.41;59.14;94193.88;5472305;26;20003;-45
2024/04/25 04:31:38;;;;;;;10.25;4.97;;;;;;;6.41;59.55;94192.06;5407973;26;20011;-47
2024/04/25 04:34:04;;;;;;;8.38;5.82;;;;;;;6.36;60.46;94191.81;5449598;26;20009;-45
2024/04/25 04:36:33;;;;;;;10.30;6.60;;;;;;;6.45;61.44;94197.69;5449381;26;20002;-46
2024/04/25 04:38:59;;;;;;;6.83;5.47;;;;;;;6.36;61.68;94196.16;5446812;26;20004;-46
2024/04/25 04:41:25;;;;;;;9.00;6.25;;;;;;;6.49;60.82;94198.94;5417870;26;20002;-45
2024/04/25 04:43:50;;;;;;;8.10;6.00;;;;;;;6.20;61.44;94192.78;5460819;26;20003;-44
2024/04/25 04:46:15;;;;;;;7.93;5.72;;;;;;;6.26;61.20;94199.00;5442102;26;20084;-46
2024/04/25 04:48:45;;;;;;;8.93;5.78;;;;;;;6.07;61.71;94197.72;5446711;26;20010;-45
2024/04/25 04:51:13;;;;;;;8.73;6.07;;;;;;;6.02;61.19;94197.47;5446419;26;19999;-45
2024/04/25 04:53:39;;;;;;;8.52;5.85;;;;;;;6.20;61.04;94203.09;5447579;26;20013;-47
2024/04/25 04:56:06;;;;;;;9.07;5.82;;;;;;;6.22;61.00;94198.56;5416758;26;20003;-45
2024/04/25 04:58:32;;;;;;;9.70;5.70;;;;;;;6.29;60.45;94195.28;5427598;26;20008;-45
2024/04/25 05:00:58;;;;;;;8.80;5.53;;;;;;;6.13;60.67;94198.81;5448892;26;20014;-45
2024/04/25 05:03:24;;;;;;;9.20;6.18;;;;;;;6.28;60.45;94202.22;5446419;26;20003;-45
2024/04/25 05:05:49;;;;;;;9.35;5.88;;;;;;;6.18;60.30;94194.72;5448542;26;20014;-48
2024/04/25 05:08:14;;;;;;;11.05;7.03;;;;;;;6.39;60.59;94199.22;5447128;26;19998;-46
2024/04/25 05:10:40;;;;;;;11.10;7.30;;;;;;;6.54;61.65;94203.59;5446673;26;20002;-45
2024/04/25 05:13:06;;;;;;;9.13;6.47;;;;;;;6.50;61.49;94205.72;5448478;26;20003;-44
2024/04/25 05:15:32;;;;;;;11.00;7.40;;;;;;;6.64;60.91;94196.38;5447149;26;20011;-45
2024/04/25 05:17:57;;;;;;;12.10;7.38;;;;;;;6.65;61.39;94210.91;5447194;26;19999;-45
2024/04/25 05:20:22;;;;;;;10.45;6.38;;;;;;;6.53;62.09;94207.97;5446502;26;19995;-47
2024/04/25 05:22:48;;;;;;;13.60;7.63;;;;;;;6.68;61.37;94214.91;5445517;26;20018;-44
2024/04/25 05:25:13;;;;;;;11.55;6.57;;;;;;;6.69;61.54;94217.31;5447895;26;19999;-46
2024/04/25 05:27:39;;;;;;;11.20;7.07;;;;;;;6.56;61.86;94217.13;5447224;26;20448;-45
2024/04/25 05:30:04;;;;;;;13.20;7.40;;;;;;;6.55;62.07;94213.75;5448548;26;20007;-48
2024/04/25 05:32:30;;;;;;;9.77;6.22;;;;;;;6.53;61.06;94207.97;5445596;26;19998;-45
2024/04/25 05:34:57;;;;;;;9.20;5.72;;;;;;;6.51;60.33;94203.94;5446166;26;20106;-47
2024/04/25 05:37:24;;;;;;;10.55;5.90;;;;;;;6.24;61.10;94203.56;5441995;26;20083;-47
2024/04/25 05:39:50;;;;;;;7.95;6.28;;;;;;;6.46;60.82;94202.69;5446192;26;20419;-47
2024/04/25 05:42:15;;;;;;;11.77;7.00;;;;;;;6.52;61.20;94208.13;5440917;26;19999;-45
2024/04/25 05:44:46;;;;;;;10.63;7.28;;;;;;;6.67;61.82;94214.13;5446627;26;20003;-45
2024/04/25 05:47:14;;;;;;;11.07;7.15;;;;;;;6.81;61.66;94217.66;5446082;26;20042;-45
2024/04/25 05:49:39;;;;;;;8.60;6.28;;;;;;;6.95;61.22;94219.47;5441416;26;20444;-45
2024/04/25 05:52:05;;;;;;;9.02;6.40;;;;;;;7.02;60.72;94217.75;5447187;26;20003;-48
2024/04/25 05:54:30;;;;;;;9.18;6.25;;;;;;;7.21;60.43;94215.56;5444433;26;20011;-50
2024/04/25 05:56:56;;;;;;;7.88;5.93;;;;;;;7.20;59.80;94219.97;5433944;26;19999;-49
2024/04/25 05:59:21;;;;;;;9.07;5.90;;;;;;;7.38;59.41;94222.13;5447070;26;20401;-47
2024/04/25 06:01:46;;;;;;;8.10;6.38;;;;;;;7.33;59.85;94221.06;5443152;26;20031;-49
2024/04/25 06:04:12;;;;;;;8.82;6.00;;;;;;;7.53;59.58;94226.47;5445557;26;20627;-51
2024/04/25 06:06:37;;;;;;;7.53;5.65;;;;;;;7.52;59.72;94230.03;5450993;26;20054;-51
2024/04/25 06:09:03;;;;;;;7.55;6.28;;;;;;;7.48;60.79;94231.41;5449437;26;20063;-46
2024/04/25 06:11:29;;;;;;;8.40;6.15;;;;;;;7.69;60.11;94228.03;5384542;26;20034;-48
2024/04/25 06:13:54;;;;;;;8.85;6.28;;;;;;;7.82;59.15;94226.41;5441155;26;20007;-47
2024/04/25 06:16:21;;;;;;;8.18;5.50;;;;;;;7.88;58.69;94234.38;5449701;26;20028;-47
2024/04/25 06:18:46;;;;;;;9.27;5.43;;;;;;;7.80;58.17;94236.09;5447415;26;20044;-49
2024/04/25 06:21:11;;;;;;;7.95;5.03;;;;;;;7.80;57.19;94240.50;5448569;26;20014;-46
2024/04/25 06:23:37;;;;;;;5.68;4.72;;;;;;;7.74;56.88;94231.69;5449659;26;20010;-46
2024/04/25 06:26:02;;;;;;;6.15;4.85;;;;;;;7.74;57.53;94231.69;5416391;26;19995;-46
2024/04/25 06:28:28;;;;;;;7.30;5.05;;;;;;;7.93;56.75;94235.44;5443686;26;20030;-45
2024/04/25 06:30:57;;;;;;;6.45;4.60;;;;;;;8.10;55.60;94230.03;5448873;26;20003;-49
2024/04/25 06:33:22;;;;;;;8.20;5.60;;;;;;;8.40;56.90;94228.06;5446184;26;20006;-47
2024/04/25 06:35:48;;;;;;;9.80;5.78;;;;;;;8.44;57.82;94225.94;5451336;26;20022;-47
2024/04/25 06:38:14;;;;;;;7.60;5.68;;;;;;;8.33;58.45;94232.41;5444556;26;19999;-49
2024/04/25 06:40:40;;;;;;;7.68;5.78;;;;;;;8.60;55.56;94230.81;5436052;26;19991;-47
2024/04/25 06:43:06;;;;;;;6.28;5.25;;;;;;;8.26;55.99;94232.31;5433768;26;20005;-49
2024/04/25 06:45:31;;;;;;;9.25;5.40;;;;;;;7.81;57.24;94229.16;5433911;26;20018;-46
2024/04/25 06:47:56;;;;;;;7.30;5.40;;;;;;;7.67;57.03;94227.41;5470496;26;20014;-48
2024/04/25 06:50:23;;;;;;;7.70;5.70;;;;;;;7.61;58.00;94234.13;5447712;26;19995;-46
2024/04/25 06:52:48;;;;;;;6.25;5.57;;;;;;;7.89;57.64;94238.59;5440446;26;20005;-46
2024/04/25 06:55:14;;;;;;;10.25;5.50;;;;;;;8.02;57.04;94228.34;5447624;26;19995;-46
2024/04/25 06:57:39;;;;;;;8.10;5.28;;;;;;;7.80;57.78;94237.91;5441460;26;20072;-47
2024/04/25 07:00:05;;;;;;;8.38;5.60;;;;;;;8.01;58.22;94230.16;5438998;26;19995;-49
2024/04/25 07:02:30;;;;;;;7.57;5.18;;;;;;;8.15;57.54;94223.28;5439955;26;19998;-49
2024/04/25 07:04:57;;;;;;;7.15;4.57;;;;;;;8.02;55.11;94229.16;5444953;26;20024;-50
2024/04/25 07:07:22;;;;;;;8.98;5.30;;;;;;;8.01;54.47;94221.56;5445123;26;20006;-50
2024/04/25 07:09:48;;;;;;;10.52;5.43;;;;;;;7.91;55.27;94218.50;5448499;26;19999;-46
2024/04/25 07:12:13;;;;;;;6.38;5.07;;;;;;;7.83;54.96;94227.97;5446423;26;20435;-49
2024/04/25 07:14:39;;;;;;;8.38;5.47;;;;;;;8.03;54.60;94207.47;5446282;26;20006;-49
2024/04/25 07:17:05;;;;;;;7.68;5.30;;;;;;;8.26;53.95;94218.59;5445662;26;20431;-49
2024/04/25 07:19:30;;;;;;;6.15;4.30;;;;;;;8.06;54.10;94216.63;5442218;26;20010;-47
2024/04/25 07:21:57;;;;;;;5.68;4.03;;;;;;;7.98;54.26;94222.75;5448385;26;20010;-47
2024/04/25 07:24:23;;;;;;;8.63;3.90;;;;;;;8.07;53.47;94220.81;5445533;26;20010;-46
2024/04/25 07:26:48;;;;;;;6.47;4.45;;;;;;;8.57;52.89;94221.63;5445116;26;20050;-50
2024/04/25 07:29:14;;;;;;;5.80;4.03;;;;;;;8.94;53.27;94224.84;5444007;26;19999;-47
2024/04/25 07:31:39;;;;;;;5.78;4.75;;;;;;;9.25;51.86;94226.16;5416805;26;20455;-48
2024/04/25 07:34:04;;;;;;;6.15;4.65;;;;;;;9.38;53.43;94223.63;5446779;26;19999;-47
2024/04/25 07:36:35;;;;;;;4.70;3.83;;;;;;;9.63;48.61;94219.72;5444228;26;20056;-47
2024/04/25 07:39:01;;;;;;;6.68;4.80;;;;;;;9.21;50.69;94217.19;5445768;26;20068;-45
2024/04/25 07:41:28;;;;;;;5.60;3.83;;;;;;;9.59;49.16;94208.91;5441527;26;20108;-46
2024/04/25 07:43:53;;;;;;;5.80;3.47;;;;;;;10.09;46.46;94219.00;5434509;26;20021;-49
2024/04/25 07:46:19;;;;;;;5.78;3.70;;;;;;;10.48;46.65;94220.81;5430954;26;20432;-47
2024/04/25 07:48:44;;;;;;;4.93;3.80;;;;;;;10.74;44.87;94216.63;5447974;26;20013;-47
2024/04/25 07:51:10;;;;;;;5.25;3.85;;;;;;;10.75;46.55;94213.00;5446458;26;20071;-46
2024/04/25 07:53:35;;;;;;;4.47;3.70;;;;;;;10.60;47.23;94209.81;5439567;26;20010;-46
2024/04/25 07:56:00;;;;;;;6.10;3.58;;;;;;;10.79;46.22;94208.19;5438480;26;20007;-49
2024/04/25 07:58:26;;;;;;;6.38;3.90;;;;;;;10.81;44.11;94213.97;5444930;26;20381;-49
2024/04/25 08:00:51;;;;;;;4.43;3.72;;;;;;;10.53;47.33;94210.63;5416605;26;19995;-48
2024/04/25 08:03:18;;;;;;;4.80;3.55;;;;;;;10.53;44.67;94207.25;5445836;26;20459;-50
2024/04/25 08:05:46;;;;;;;6.00;3.88;;;;;;;10.49;48.01;94212.03;5443808;26;20005;-49
2024/04/25 08:08:11;;;;;;;4.93;3.97;;;;;;;10.40;48.41;94208.03;5443674;26;20078;-48
2024/04/25 08:10:38;;;;;;;5.38;4.00;;;;;;;10.48;49.73;94207.03;5442738;26;20010;-51
2024/04/25 08:13:03;;;;;;;5.40;4.15;;;;;;;11.17;48.16;94213.47;5443701;26;20013;-50
2024/04/25 08:15:29;;;;;;;5.70;4.10;;;;;;;10.84;48.16;94205.78;5448432;26;20003;-52
2024/04/25 08:17:54;;;;;;;7.35;4.18;;;;;;;11.01;47.47;94212.13;5443640;26;20015;-48
2024/04/25 08:20:19;;;;;;;5.88;3.95;;;;;;;11.00;48.31;94201.94;5430464;26;19999;-52
2024/04/25 08:22:46;;;;;;;5.50;4.07;;;;;;;11.09;46.68;94198.09;5435396;26;20039;-49
2024/04/25 08:25:12;;;;;;;5.85;3.78;;;;;;;11.53;44.48;94201.72;5444344;26;19995;-48
2024/04/25 08:27:37;;;;;;;6.32;3.80;;;;;;;11.29;44.73;94209.25;5439072;26;19999;-46
2024/04/25 08:30:03;;;;;;;6.18;3.90;;;;;;;11.11;46.89;94203.91;5444317;26;20002;-49
2024/04/25 08:32:28;;;;;;;6.90;4.20;;;;;;;11.72;46.57;94211.22;5445838;26;20017;-46
2024/04/25 08:34:53;;;;;;;5.82;3.90;;;;;;;11.95;45.54;94201.31;5434775;26;20036;-50
2024/04/25 08:37:19;;;;;;;6.97;4.10;;;;;;;11.35;48.00;94205.81;5434277;26;20039;-51
2024/04/25 08:39:44;;;;;;;5.30;3.60;;;;;;;11.07;44.52;94200.13;5443915;26;20002;-52
2024/04/25 08:42:09;;;;;;;5.43;4.10;;;;;;;11.24;46.82;94203.84;5438605;26;20025;-46
2024/04/25 08:44:37;;;;;;;7.68;4.13;;;;;;;11.56;47.72;94201.31;5442245;26;20014;-50
2024/04/25 08:47:04;;;;;;;5.88;3.80;;;;;;;11.77;45.70;94197.59;5408113;26;20018;-49
2024/04/25 08:49:32;;;;;;;6.70;4.00;;;;;;;11.48;45.50;94191.94;5434803;26;19999;-48
2024/04/25 08:51:59;;;;;;;6.45;4.45;;;;;;;11.65;46.25;94194.84;5440103;26;20003;-48
2024/04/25 08:54:24;;;;;;;4.57;4.15;;;;;;;11.41;46.66;94192.97;5442097;26;19999;-49
2024/04/25 08:56:50;;;;;;;6.35;4.22;;;;;;;11.56;46.65;94196.09;5412944;26;20011;-49
2024/04/25 08:59:15;;;;;;;7.18;4.15;;;;;;;11.54;45.58;94195.53;5447422;26;20054;-51
2024/04/25 09:01:42;;;;;;;5.18;4.43;;;;;;;11.50;48.28;94197.72;5449755;26;19999;-47
2024/04/25 09:04:14;;;;;;;5.85;4.20;;;;;;;11.97;46.20;94189.66;5447398;26;20003;-46
2024/04/25 09:06:39;;;;;;;5.82;4.00;;;;;;;11.53;45.75;94194.69;5438659;26;20011;-49
2024/04/25 09:09:06;;;;;;;5.82;4.22;;;;;;;11.40;47.27;94196.56;5434800;26;20083;-47
2024/04/25 09:11:31;;;;;;;7.25;4.25;;;;;;;11.26;46.82;94194.03;5435809;26;20002;-49
2024/04/25 09:13:58;;;;;;;6.53;4.30;;;;;;;11.34;47.52;94199.00;5411096;26;20068;-48
2024/04/25 09:16:24;;;;;;;5.93;4.38;;;;;;;12.12;46.39;94187.53;5447718;26;20428;-45
2024/04/25 09:18:50;;;;;;;5.05;4.03;;;;;;;12.22;46.05;94181.06;5441599;26;20015;-45
2024/04/25 09:21:16;;;;;;;5.05;4.20;;;;;;;12.37;41.47;94189.34;5446197;26;20003;-46
2024/04/25 09:23:43;;;;;;;5.45;4.15;;;;;;;12.41;43.92;94187.91;5441212;26;20467;-51
2024/04/25 09:26:09;;;;;;;5.55;4.43;;;;;;;12.90;43.27;94183.63;5444366;26;20002;-49
2024/04/25 09:28:35;;;;;;;6.60;4.15;;;;;;;12.72;42.87;94183.66;5444548;26;20044;-47
2024/04/25 09:31:01;;;;;;;5.15;4.30;;;;;;;12.63;42.78;94187.53;5441079;26;20019;-47
2024/04/25 09:33:26;;;;;;;6.40;4.53;;;;;;;12.66;44.88;94182.69;5444192;26;19999;-49
2024/04/25 09:35:52;;;;;;;6.03;3.65;;;;;;;12.54;42.38;94183.59;5439022;26;20029;-47
2024/04/25 09:38:17;;;;;;;5.90;3.90;;;;;;;12.31;40.45;94175.38;5410643;26;20337;-48
2024/04/25 09:40:45;;;;;;;5.20;3.88;;;;;;;12.49;40.60;94173.84;5443695;26;20014;-51
2024/04/25 09:43:11;;;;;;;7.53;4.47;;;;;;;12.39;45.09;94182.13;5442429;26;20042;-52
2024/04/25 09:45:40;;;;;;;3.85;3.45;;;;;;;12.61;42.74;94174.72;5441917;26;19999;-48
2024/04/25 09:48:10;;;;;;;6.10;4.05;;;;;;;13.10;44.21;94169.59;5440927;26;20003;-49
2024/04/25 09:50:41;;;;;;;6.25;3.50;;;;;;;13.52;41.58;94169.69;5418472;26;20455;-51
2024/04/25 09:53:14;;;;;;;6.43;3.08;;;;;;;13.50;38.79;94169.13;5441538;26;20075;-50
2024/04/25 09:55:44;;;;;;;5.03;3.30;;;;;;;13.42;42.13;94161.56;5443441;26;20524;-49
2024/04/25 09:58:34;;;;;;;7.95;3.65;;;;;;;13.82;40.61;94158.41;5441448;26;20002;-50
2024/04/25 10:01:00;;;;;;;4.85;3.08;;;;;;;14.02;38.02;94150.28;5439965;26;19999;-50
2024/04/25 10:03:26;;;;;;;4.72;2.88;;;;;;;14.23;39.66;94148.97;5445730;26;20079;-49
2024/04/25 10:05:53;;;;;;;5.03;2.92;;;;;;;14.59;37.61;94147.97;5447222;26;20435;-48
2024/04/25 10:08:19;;;;;;;4.60;2.88;;;;;;;14.70;42.77;94143.75;5442829;26;20006;-49
2024/04/25 10:10:45;;;;;;;5.60;2.80;;;;;;;15.15;41.02;94137.84;5441992;26;19999;-49
2024/04/25 10:13:14;;;;;;;3.72;2.65;;;;;;;15.07;33.88;94142.69;5445117;26;19999;-46
2024/04/25 10:15:40;;;;;;;4.05;2.70;;;;;;;14.99;35.45;94142.00;5439813;26;20003;-49
2024/04/25 10:18:07;;;;;;;4.55;2.85;;;;;;;14.74;36.72;94137.03;5441907;26;19999;-51
2024/04/25 10:20:32;;;;;;;6.35;3.00;;;;;;;15.19;38.87;94151.28;5429577;26;20003;-50
2024/04/25 10:22:59;;;;;;;4.15;2.75;;;;;;;14.96;33.94;94131.97;5447442;26;20039;-50
2024/04/25 10:25:25;;;;;;;3.78;2.50;;;;;;;15.11;33.27;94139.34;5442208;26;20006;-51
2024/04/25 10:27:57;;;;;;;4.22;2.63;;;;;;;15.19;35.37;94128.53;5439631;26;20002;-52
2024/04/25 10:30:22;;;;;;;4.35;2.83;;;;;;;15.03;37.07;94124.78;5430433;26;20027;-47
2024/04/25 10:32:47;;;;;;;4.50;2.53;;;;;;;15.45;34.70;94129.00;5437689;26;20033;-52
2024/04/25 10:35:13;;;;;;;4.40;2.78;;;;;;;15.52;35.66;94124.41;5446525;26;19998;-49
2024/04/25 10:37:38;;;;;;;5.25;2.88;;;;;;;14.97;33.81;94117.88;5438768;26;19999;-50
2024/04/25 10:40:12;;;;;;;4.13;2.30;;;;;;;15.83;34.13;94115.25;5446405;26;20003;-50
2024/04/25 10:42:38;;;;;;;4.07;2.90;;;;;;;16.05;36.39;94121.63;5447104;26;20005;-46
2024/04/25 10:45:04;;;;;;;4.00;2.67;;;;;;;16.01;37.05;94118.69;5446327;26;20003;-50
2024/04/25 10:47:29;;;;;;;5.93;2.60;;;;;;;16.57;33.83;94110.88;5440749;26;20022;-50
2024/04/25 10:49:55;;;;;;;3.20;2.50;;;;;;;16.39;32.60;94117.97;5444265;26;20002;-46
2024/04/25 10:52:20;;;;;;;3.47;2.50;;;;;;;16.52;34.62;94108.94;5381254;26;20003;-47
2024/04/25 10:54:46;;;;;;;3.65;2.45;;;;;;;16.43;33.97;94118.28;5446003;26;20060;-49
2024/04/25 10:57:13;;;;;;;4.05;2.45;;;;;;;16.46;32.91;94099.44;5417999;26;20003;-49
2024/04/25 10:59:38;;;;;;;3.67;2.40;;;;;;;16.38;29.24;94110.34;5448841;26;19999;-46
2024/04/25 11:02:05;;;;;;;4.93;2.70;;;;;;;15.88;31.69;94104.09;5442036;26;20005;-47
2024/04/25 11:04:38;;;;;;;6.22;2.83;;;;;;;15.54;33.97;94108.47;5447213;26;20331;-45
2024/04/25 11:07:07;;;;;;;4.20;2.30;;;;;;;15.34;34.77;94106.25;5446521;26;20039;-47
2024/04/25 11:09:34;;;;;;;4.07;2.60;;;;;;;15.56;33.19;94107.19;5450068;26;20072;-48
2024/04/25 11:12:00;;;;;;;4.65;2.50;;;;;;;15.68;33.66;94101.09;5448511;26;20026;-46
2024/04/25 11:14:25;;;;;;;3.33;2.40;;;;;;;15.89;33.00;94091.75;5410281;26;20022;-45
2024/04/25 11:16:51;;;;;;;4.13;2.45;;;;;;;15.52;31.40;94098.19;5446528;26;20006;-47
2024/04/25 11:19:17;;;;;;;3.92;2.10;;;;;;;15.47;31.06;94098.09;5446258;26;20041;-48
2024/04/25 11:21:44;;;;;;;3.63;2.55;;;;;;;15.08;31.66;94097.94;5439161;26;20372;-46
2024/04/25 11:24:16;;;;;;;3.38;2.25;;;;;;;14.74;33.87;94095.16;5445934;26;20079;-47
2024/04/25 11:26:43;;;;;;;4.15;2.28;;;;;;;15.32;32.02;94087.34;5448353;26;20018;-46
2024/04/25 11:29:08;;;;;;;4.28;2.30;;;;;;;15.25;34.12;94085.69;5448809;26;19999;-47
2024/04/25 11:31:34;;;;;;;4.63;2.40;;;;;;;15.34;35.43;94090.53;5451285;26;20014;-46
2024/04/25 11:34:03;;;;;;;4.15;2.10;;;;;;;15.98;34.26;94085.88;5448393;26;19999;-48
2024/04/25 11:36:28;;;;;;;2.58;1.83;;;;;;;16.06;30.31;94078.66;5448967;26;19998;-46
2024/04/25 11:38:54;;;;;;;2.55;2.15;;;;;;;15.91;34.13;94079.19;5435895;26;20019;-45